createdAt,value
2019-05-01T00:03:14.033Z,10.42
2019-05-01T00:08:17.267Z,10.42
2019-05-01T00:13:19.059Z,10.09
2019-05-01T00:18:23.083Z,10.14
2019-05-01T00:23:25.104Z,10.20
2019-05-01T00:28:26.909Z,10.04
2019-05-01T00:33:28.820Z,10.04
2019-05-01T00:38:30.753Z,9.99
2019-05-01T00:43:32.603Z,9.77
2019-05-01T00:48:34.499Z,9.68
2019-05-01T00:53:36.682Z,9.67
2019-05-01T00:59:01.041Z,9.49
2019-05-01T01:04:03.274Z,9.66
2019-05-01T01:09:06.196Z,9.82
2019-05-01T01:14:08.100Z,10.06
2019-05-01T01:19:14.295Z,10.30
2019-05-01T01:24:16.493Z,9.93
2019-05-01T01:29:21.474Z,10.19
2019-05-01T01:34:25.760Z,10.40
2019-05-01T01:39:27.671Z,10.45
2019-05-01T01:44:38.487Z,10.63
2019-05-01T01:49:40.374Z,10.54
2019-05-01T01:54:42.537Z,10.35
2019-05-01T01:59:44.944Z,10.58
2019-05-01T02:05:05.465Z,10.54
2019-05-01T02:10:07.930Z,10.45
2019-05-01T02:15:09.787Z,10.68
2019-05-01T02:20:12.475Z,10.66
2019-05-01T02:25:15.271Z,10.73
2019-05-01T02:30:19.008Z,10.56
2019-05-01T02:35:22.003Z,10.47
2019-05-01T02:40:48.060Z,10.52
2019-05-01T02:45:56.125Z,10.49
2019-05-01T02:51:02.269Z,10.44
2019-05-01T02:56:34.664Z,10.90
2019-05-01T03:01:46.264Z,10.90
2019-05-01T03:06:41.557Z,10.70
2019-05-01T03:11:46.049Z,10.64
2019-05-01T03:16:51.776Z,10.98
2019-05-01T03:22:03.338Z,10.85
2019-05-01T03:27:05.637Z,10.71
2019-05-01T03:32:19.041Z,10.85
2019-05-01T03:37:12.921Z,10.96
2019-05-01T03:42:15.978Z,10.91
2019-05-01T03:47:18.257Z,11.05
2019-05-01T03:52:20.863Z,11.10
2019-05-01T03:57:22.775Z,11.06
2019-05-01T04:02:45.254Z,11.05
2019-05-01T04:07:47.338Z,10.90
2019-05-01T04:12:49.321Z,11.12
2019-05-01T04:17:55.739Z,11.20
2019-05-01T04:22:57.877Z,11.26
2019-05-01T04:28:03.335Z,11.30
2019-05-01T04:33:08.650Z,11.18
2019-05-01T04:38:10.953Z,11.46
2019-05-01T04:43:12.845Z,11.46
2019-05-01T04:48:14.747Z,11.46
2019-05-01T04:53:17.697Z,11.46
2019-05-01T04:58:19.687Z,11.45
2019-05-01T05:03:23.572Z,11.57
2019-05-01T05:08:25.464Z,11.51
2019-05-01T05:13:32.391Z,11.55
2019-05-01T05:18:34.418Z,11.71
2019-05-01T05:23:36.778Z,11.70
2019-05-01T05:28:38.991Z,11.70
2019-05-01T05:33:43.606Z,11.99
2019-05-01T05:39:00.005Z,11.71
2019-05-01T05:44:07.142Z,12.57
2019-05-01T05:49:11.655Z,12.48
2019-05-01T05:54:37.019Z,12.63
2019-05-01T05:59:44.780Z,12.71
2019-05-01T06:05:16.204Z,13.47
2019-05-01T06:10:33.201Z,13.07
2019-05-01T06:16:03.330Z,13.11
2019-05-01T06:21:24.703Z,12.90
2019-05-01T06:26:32.260Z,15.41
2019-05-01T06:31:32.928Z,13.66
2019-05-01T06:36:35.070Z,13.56
2019-05-01T06:41:42.965Z,12.68
2019-05-01T06:47:08.150Z,12.55
2019-05-01T06:52:11.902Z,13.14
2019-05-01T06:57:14.101Z,12.98
2019-05-01T07:02:20.875Z,12.84
2019-05-01T07:07:25.538Z,12.52
2019-05-01T07:12:30.031Z,13.04
2019-05-01T07:17:32.632Z,13.27
2019-05-01T07:22:37.152Z,12.97
2019-05-01T07:27:40.594Z,12.84
2019-05-01T07:32:42.786Z,13.40
2019-05-01T07:37:45.015Z,13.19
2019-05-01T07:42:49.678Z,13.73
2019-05-01T07:47:52.119Z,13.84
2019-05-01T07:52:54.075Z,14.15
2019-05-01T07:57:57.194Z,14.14
2019-05-01T08:03:02.588Z,14.36
2019-05-01T08:08:07.422Z,14.28
2019-05-01T08:13:06.758Z,14.62
2019-05-01T08:18:36.188Z,15.19
2019-05-01T08:23:37.669Z,14.34
2019-05-01T08:29:03.057Z,15.28
2019-05-01T08:34:08.029Z,14.61
2019-05-01T08:39:13.920Z,15.13
2019-05-01T08:44:18.385Z,15.32
2019-05-01T08:49:52.919Z,14.92
2019-05-01T08:54:55.018Z,15.45
2019-05-01T09:00:00.275Z,15.37
2019-05-01T09:05:02.831Z,15.54
2019-05-01T09:10:08.935Z,15.64
2019-05-01T09:15:12.677Z,17.03
2019-05-01T09:20:16.673Z,16.16
2019-05-01T09:25:26.199Z,16.37
2019-05-01T09:30:34.231Z,15.23
2019-05-01T09:35:40.181Z,16.54
2019-05-01T09:40:40.177Z,16.43
2019-05-01T09:45:44.889Z,15.87
2019-05-01T09:50:52.815Z,16.43
2019-05-01T09:56:03.231Z,16.26
2019-05-01T10:01:07.339Z,17.05
2019-05-01T10:06:12.847Z,17.07
2019-05-01T10:11:14.974Z,17.50
2019-05-01T10:16:17.084Z,16.75
2019-05-01T10:21:22.403Z,17.21
2019-05-01T10:26:27.234Z,17.65
2019-05-01T10:31:47.749Z,16.62
2019-05-01T10:36:54.644Z,16.81
2019-05-01T10:41:54.527Z,17.08
2019-05-01T10:47:01.865Z,16.48
2019-05-01T10:52:13.606Z,16.34
2019-05-01T10:57:07.016Z,17.32
2019-05-01T11:02:11.097Z,17.12
2019-05-01T11:07:13.026Z,17.26
2019-05-01T11:12:14.828Z,16.34
2019-05-01T11:17:16.784Z,16.52
2019-05-01T11:22:22.685Z,17.16
2019-05-01T11:27:25.042Z,16.61
2019-05-01T11:32:35.677Z,16.60
2019-05-01T11:38:04.276Z,17.21
2019-05-01T11:43:10.060Z,16.19
2019-05-01T11:48:11.971Z,16.59
2019-05-01T11:53:16.074Z,16.14
2019-05-01T11:58:17.961Z,15.21
2019-05-01T12:03:19.880Z,15.36
2019-05-01T12:08:21.852Z,14.72
2019-05-01T12:13:24.785Z,14.92
2019-05-01T12:18:26.671Z,15.07
2019-05-01T12:23:28.539Z,14.83
2019-05-01T12:28:30.349Z,15.44
2019-05-01T12:33:37.567Z,15.20
2019-05-01T12:38:39.465Z,15.04
2019-05-01T12:43:41.469Z,14.70
2019-05-01T12:48:44.389Z,14.86
2019-05-01T12:54:03.906Z,14.67
2019-05-01T12:59:08.126Z,14.71
2019-05-01T13:04:09.995Z,15.08
2019-05-01T13:09:11.911Z,16.32
2019-05-01T13:14:13.886Z,15.74
2019-05-01T13:19:15.807Z,15.58
2019-05-01T13:24:17.919Z,15.60
2019-05-01T13:29:25.355Z,15.62
2019-05-01T13:34:27.400Z,16.26
2019-05-01T13:39:29.291Z,16.69
2019-05-01T13:44:33.820Z,16.18
2019-05-01T13:49:35.527Z,15.07
2019-05-01T13:54:37.465Z,15.26
2019-05-01T13:59:39.380Z,15.42
2019-05-01T14:04:44.231Z,15.63
2019-05-01T14:09:48.522Z,15.26
2019-05-01T14:14:50.410Z,15.58
2019-05-01T14:20:02.558Z,16.12
2019-05-01T14:25:05.809Z,15.99
2019-05-01T14:30:10.291Z,15.85
2019-05-01T14:35:12.441Z,16.37
2019-05-01T14:40:14.527Z,16.69
2019-05-01T14:45:16.419Z,16.19
2019-05-01T14:50:18.204Z,15.74
2019-05-01T14:55:20.123Z,15.63
2019-05-01T15:00:22.354Z,15.47
2019-05-01T15:05:25.811Z,15.39
2019-05-01T15:10:27.592Z,14.84
2019-05-01T15:15:49.036Z,15.07
2019-05-01T15:20:50.848Z,15.17
2019-05-01T15:25:53.086Z,14.65
2019-05-01T15:30:54.998Z,15.10
2019-05-01T15:35:57.008Z,14.75
2019-05-01T15:41:08.431Z,14.79
2019-05-01T15:46:10.418Z,15.40
2019-05-01T15:51:14.677Z,15.38
2019-05-01T15:56:16.520Z,15.53
2019-05-01T16:01:19.503Z,15.31
2019-05-01T16:06:21.523Z,14.94
2019-05-01T16:11:49.198Z,14.80
2019-05-01T16:16:51.578Z,14.95
2019-05-01T16:21:53.575Z,15.26
2019-05-01T16:26:55.307Z,15.63
2019-05-01T16:31:57.200Z,15.30
2019-05-01T16:36:59.214Z,15.09
2019-05-01T16:42:01.197Z,15.40
2019-05-01T16:47:03.210Z,15.22
2019-05-01T16:52:06.990Z,15.00
2019-05-01T16:57:11.853Z,14.98
2019-05-01T17:02:42.500Z,14.61
2019-05-01T17:07:56.290Z,14.58
2019-05-01T17:12:58.091Z,14.55
2019-05-01T17:18:00.179Z,14.35
2019-05-01T17:23:02.123Z,14.27
2019-05-01T17:28:08.231Z,14.18
2019-05-01T17:33:08.580Z,14.15
2019-05-01T17:38:10.361Z,14.14
2019-05-01T17:43:15.489Z,14.02
2019-05-01T17:48:17.594Z,13.61
2019-05-01T17:53:19.670Z,13.66
2019-05-01T17:58:21.555Z,13.60
2019-05-01T18:03:39.135Z,13.70
2019-05-01T18:08:41.032Z,13.24
2019-05-01T18:13:42.852Z,13.21
2019-05-01T18:18:44.740Z,13.37
2019-05-01T18:24:02.112Z,13.15
2019-05-01T18:29:17.577Z,12.95
2019-05-01T18:34:22.407Z,12.98
2019-05-01T18:39:43.946Z,12.70
2019-05-01T18:44:47.578Z,12.57
2019-05-01T18:49:50.176Z,12.38
2019-05-01T18:54:52.203Z,12.38
2019-05-01T18:59:54.157Z,12.26
2019-05-01T19:04:56.135Z,12.12
2019-05-01T19:10:00.067Z,12.12
2019-05-01T19:15:05.520Z,11.79
2019-05-01T19:20:06.064Z,11.81
2019-05-01T19:25:10.919Z,11.86
2019-05-01T19:30:14.910Z,11.75
2019-05-01T19:35:16.699Z,11.72
2019-05-01T19:40:18.546Z,11.42
2019-05-01T19:45:20.573Z,11.42
2019-05-01T19:50:24.673Z,11.41
2019-05-01T19:55:26.533Z,11.26
2019-05-01T20:00:53.573Z,11.21
2019-05-01T20:05:59.643Z,11.17
2019-05-01T20:10:59.405Z,11.17
2019-05-01T20:16:01.294Z,11.00
2019-05-01T20:21:04.955Z,11.00
2019-05-01T20:26:07.131Z,11.00
2019-05-01T20:31:09.081Z,11.11
2019-05-01T20:36:10.984Z,10.81
2019-05-01T20:41:15.804Z,10.58
2019-05-01T20:46:21.505Z,10.58
2019-05-01T20:51:24.391Z,10.67
2019-05-01T20:56:46.096Z,10.72
2019-05-01T21:01:48.040Z,10.21
2019-05-01T21:07:09.652Z,10.21
2019-05-01T21:12:11.506Z,10.21
2019-05-01T21:17:16.197Z,10.14
2019-05-01T21:22:18.107Z,10.15
2019-05-01T21:27:19.930Z,10.17
2019-05-01T21:32:26.149Z,10.04
2019-05-01T21:37:26.722Z,10.04
2019-05-01T21:42:28.803Z,9.82
2019-05-01T21:47:30.746Z,9.82
2019-05-01T21:52:33.254Z,9.90
2019-05-01T21:57:38.693Z,9.80
2019-05-01T22:02:41.511Z,9.74
2019-05-01T22:07:43.526Z,9.74
2019-05-01T22:12:49.006Z,9.62
2019-05-01T22:18:00.130Z,9.62
2019-05-01T22:23:06.245Z,9.70
2019-05-01T22:28:13.968Z,9.65
2019-05-01T22:33:17.982Z,9.53
2019-05-01T22:38:19.981Z,9.33
2019-05-01T22:43:22.180Z,9.46
2019-05-01T22:48:27.131Z,9.51
2019-05-01T22:53:29.072Z,9.37
2019-05-01T22:58:33.694Z,9.44
2019-05-01T23:03:42.445Z,9.51
2019-05-01T23:08:44.669Z,9.40
2019-05-01T23:13:46.588Z,9.41
2019-05-01T23:18:51.914Z,9.51
2019-05-01T23:23:56.922Z,9.47
2019-05-01T23:28:58.827Z,9.28
2019-05-01T23:34:00.890Z,9.24
2019-05-01T23:39:04.630Z,9.36
2019-05-01T23:44:06.704Z,9.23
2019-05-01T23:49:08.696Z,9.28
2019-05-01T23:54:10.655Z,9.26
2019-05-01T23:59:12.442Z,9.13
